sensor_id;sensor_type;location;lat;lon;timestamp;pressure;altitude;pressure_sealevel;temperature;humidity
71559;BME280;59382;43.852;25.952;2023-02-28T00:00:16;102202.91;;;7.37;67.86
71559;BME280;59382;43.852;25.952;2023-02-28T00:02:42;102203.31;;;7.42;67.59
71559;BME280;59382;43.852;25.952;2023-02-28T00:05:10;102190.66;;;7.34;67.76
71559;BME280;59382;43.852;25.952;2023-02-28T00:07:36;102215.88;;;7.41;67.82
71559;BME280;59382;43.852;25.952;2023-02-28T00:10:02;102198.47;;;7.28;67.38
71559;BME280;59382;43.852;25.952;2023-02-28T00:12:28;102226.41;;;7.35;67.43
71559;BME280;59382;43.852;25.952;2023-02-28T00:14:53;102215.75;;;7.25;67.88
71559;BME280;59382;43.852;25.952;2023-02-28T00:17:19;102215.75;;;7.25;67.51
71559;BME280;59382;43.852;25.952;2023-02-28T00:19:50;102250.94;;;7.40;67.72
71559;BME280;59382;43.852;25.952;2023-02-28T00:22:17;102221.66;;;7.29;67.74
71559;BME280;59382;43.852;25.952;2023-02-28T00:24:42;102229.78;;;7.37;67.92
71559;BME280;59382;43.852;25.952;2023-02-28T00:27:08;102231.16;;;7.41;67.77
71559;BME280;59382;43.852;25.952;2023-02-28T00:29:34;102230.88;;;7.44;67.66
71559;BME280;59382;43.852;25.952;2023-02-28T00:31:59;102231.16;;;7.41;67.65
71559;BME280;59382;43.852;25.952;2023-02-28T00:34:25;102245.56;;;7.40;67.92
71559;BME280;59382;43.852;25.952;2023-02-28T00:36:50;102232.59;;;7.35;67.94
71559;BME280;59382;43.852;25.952;2023-02-28T00:39:16;102250.03;;;7.49;67.55
71559;BME280;59382;43.852;25.952;2023-02-28T00:41:42;102231.16;;;7.41;67.69
71559;BME280;59382;43.852;25.952;2023-02-28T00:44:07;102258.47;;;7.54;67.83
71559;BME280;59382;43.852;25.952;2023-02-28T00:46:33;102260.16;;;7.55;67.70
71559;BME280;59382;43.852;25.952;2023-02-28T00:48:58;102252.09;;;7.55;67.46
71559;BME280;59382;43.852;25.952;2023-02-28T00:51:24;102263.22;;;7.60;67.49
71559;BME280;59382;43.852;25.952;2023-02-28T00:53:50;102225.25;;;7.37;67.03
71559;BME280;59382;43.852;25.952;2023-02-28T00:56:15;102249.81;;;7.42;67.23
71559;BME280;59382;43.852;25.952;2023-02-28T00:58:41;102256.72;;;7.45;67.10
71559;BME280;59382;43.852;25.952;2023-02-28T01:01:06;102199.25;;;7.03;67.44
71559;BME280;59382;43.852;25.952;2023-02-28T01:03:32;102259.69;;;7.42;67.71
71559;BME280;59382;43.852;25.952;2023-02-28T01:05:58;102266.09;;;7.41;67.57
71559;BME280;59382;43.852;25.952;2023-02-28T01:08:24;102278.09;;;7.37;67.49
71559;BME280;59382;43.852;25.952;2023-02-28T01:10:51;102248.03;;;7.16;67.52
71559;BME280;59382;43.852;25.952;2023-02-28T01:13:20;102247.72;;;7.19;67.48
71559;BME280;59382;43.852;25.952;2023-02-28T01:16:04;102271.13;;;7.26;67.30
71559;BME280;59382;43.852;25.952;2023-02-28T01:18:29;102248.31;;;7.13;67.32
71559;BME280;59382;43.852;25.952;2023-02-28T01:21:06;102252.16;;;7.10;67.81
71559;BME280;59382;43.852;25.952;2023-02-28T01:23:32;102277.66;;;7.24;67.54
71559;BME280;59382;43.852;25.952;2023-02-28T01:26:08;102263.16;;;7.17;68.03
71559;BME280;59382;43.852;25.952;2023-02-28T01:28:34;102280.03;;;7.27;67.01
71559;BME280;59382;43.852;25.952;2023-02-28T01:30:59;102260.47;;;7.17;67.45
71559;BME280;59382;43.852;25.952;2023-02-28T01:33:25;102300.50;;;7.28;67.79
71559;BME280;59382;43.852;25.952;2023-02-28T01:36:02;102288.69;;;7.21;67.52
71559;BME280;59382;43.852;25.952;2023-02-28T01:38:28;102272.88;;;7.18;67.39
71559;BME280;59382;43.852;25.952;2023-02-28T01:40:55;102287.69;;;7.22;67.18
71559;BME280;59382;43.852;25.952;2023-02-28T01:43:29;102283.81;;;7.07;67.68
71559;BME280;59382;43.852;25.952;2023-02-28T01:45:57;102312.84;;;7.21;67.86
71559;BME280;59382;43.852;25.952;2023-02-28T01:48:35;102326.69;;;7.26;67.52
71559;BME280;59382;43.852;25.952;2023-02-28T01:51:09;102329.06;;;7.29;67.42
71559;BME280;59382;43.852;25.952;2023-02-28T01:53:45;102332.72;;;7.28;67.20
71559;BME280;59382;43.852;25.952;2023-02-28T01:56:13;102298.53;;;7.03;67.41
71559;BME280;59382;43.852;25.952;2023-02-28T01:58:47;102336.09;;;7.30;67.16
71559;BME280;59382;43.852;25.952;2023-02-28T02:01:13;102338.34;;;7.34;67.31
71559;BME280;59382;43.852;25.952;2023-02-28T02:03:59;102312.16;;;7.19;67.15
71559;BME280;59382;43.852;25.952;2023-02-28T02:06:30;102319.22;;;7.20;67.00
71559;BME280;59382;43.852;25.952;2023-02-28T02:08:59;102322.50;;;7.14;67.23
71559;BME280;59382;43.852;25.952;2023-02-28T02:11:24;102293.78;;;6.97;67.45
71559;BME280;59382;43.852;25.952;2023-02-28T02:14:07;102285.44;;;7.00;67.66
71559;BME280;59382;43.852;25.952;2023-02-28T02:25:42;102288.38;;;6.79;68.42
71559;BME280;59382;43.852;25.952;2023-02-28T02:31:25;102298.00;;;6.72;68.69
71559;BME280;59382;43.852;25.952;2023-02-28T02:39:53;102299.44;;;6.67;68.33
71559;BME280;59382;43.852;25.952;2023-02-28T02:45:23;102312.16;;;6.65;68.62
71559;BME280;59382;43.852;25.952;2023-02-28T02:47:50;102300.03;;;6.61;68.46
71559;BME280;59382;43.852;25.952;2023-02-28T02:50:24;102308.34;;;6.58;68.29
71559;BME280;59382;43.852;25.952;2023-02-28T02:52:55;102287.81;;;6.49;68.43
71559;BME280;59382;43.852;25.952;2023-02-28T02:55:22;102326.84;;;6.61;68.99
71559;BME280;59382;43.852;25.952;2023-02-28T02:57:52;102312.47;;;6.62;68.68
71559;BME280;59382;43.852;25.952;2023-02-28T03:00:23;102327.13;;;6.58;68.41
71559;BME280;59382;43.852;25.952;2023-02-28T03:02:52;102342.25;;;6.59;68.83
71559;BME280;59382;43.852;25.952;2023-02-28T03:05:34;102339.31;;;6.52;68.89
71559;BME280;59382;43.852;25.952;2023-02-28T03:08:03;102350.69;;;6.64;68.38
71559;BME280;59382;43.852;25.952;2023-02-28T03:10:36;102325.72;;;6.63;68.60
71559;BME280;59382;43.852;25.952;2023-02-28T03:27:23;102361.31;;;6.56;68.80
71559;BME280;59382;43.852;25.952;2023-02-28T03:30:19;102357.19;;;6.61;68.71
71559;BME280;59382;43.852;25.952;2023-02-28T03:35:26;102371.47;;;6.62;68.61
71559;BME280;59382;43.852;25.952;2023-02-28T03:38:00;102354.25;;;6.55;68.59
71559;BME280;59382;43.852;25.952;2023-02-28T03:40:32;102362.00;;;6.58;68.75
71559;BME280;59382;43.852;25.952;2023-02-28T03:43:12;102357.94;;;6.54;68.66
71559;BME280;59382;43.852;25.952;2023-02-28T03:45:39;102362.47;;;6.53;68.59
71559;BME280;59382;43.852;25.952;2023-02-28T03:50:43;102371.03;;;6.66;68.79
71559;BME280;59382;43.852;25.952;2023-02-28T03:53:24;102357.31;;;6.69;68.54
71559;BME280;59382;43.852;25.952;2023-02-28T03:56:01;102341.81;;;6.63;68.32
71559;BME280;59382;43.852;25.952;2023-02-28T03:58:35;102358.44;;;6.67;68.37
71559;BME280;59382;43.852;25.952;2023-02-28T04:01:24;102346.91;;;6.57;68.74
71559;BME280;59382;43.852;25.952;2023-02-28T04:03:51;102332.28;;;6.42;68.76
71559;BME280;59382;43.852;25.952;2023-02-28T04:06:20;102375.13;;;6.61;68.43
71559;BME280;59382;43.852;25.952;2023-02-28T04:08:46;102366.09;;;6.62;69.05
71559;BME280;59382;43.852;25.952;2023-02-28T04:11:29;102361.56;;;6.62;68.60
71559;BME280;59382;43.852;25.952;2023-02-28T04:13:58;102356.78;;;6.56;68.82
71559;BME280;59382;43.852;25.952;2023-02-28T04:16:23;102356.25;;;6.53;68.64
71559;BME280;59382;43.852;25.952;2023-02-28T04:18:49;102354.00;;;6.48;69.12
71559;BME280;59382;43.852;25.952;2023-02-28T04:21:14;102337.63;;;6.42;68.94
71559;BME280;59382;43.852;25.952;2023-02-28T04:23:40;102352.56;;;6.54;69.39
71559;BME280;59382;43.852;25.952;2023-02-28T04:26:06;102316.47;;;6.39;68.90
71559;BME280;59382;43.852;25.952;2023-02-28T04:28:32;102331.16;;;6.44;69.25
71559;BME280;59382;43.852;25.952;2023-02-28T04:31:04;102340.44;;;6.50;69.43
71559;BME280;59382;43.852;25.952;2023-02-28T04:33:33;102330.31;;;6.44;69.04
71559;BME280;59382;43.852;25.952;2023-02-28T04:36:03;102345.81;;;6.50;69.09
71559;BME280;59382;43.852;25.952;2023-02-28T04:38:31;102348.50;;;6.50;69.44
71559;BME280;59382;43.852;25.952;2023-02-28T04:40:58;102347.50;;;6.51;68.97
71559;BME280;59382;43.852;25.952;2023-02-28T04:43:26;102338.91;;;6.47;69.63
71559;BME280;59382;43.852;25.952;2023-02-28T04:45:52;102345.53;;;6.53;69.13
71559;BME280;59382;43.852;25.952;2023-02-28T04:48:18;102343.72;;;6.44;69.23
71559;BME280;59382;43.852;25.952;2023-02-28T04:50:43;102351.31;;;6.48;69.15
71559;BME280;59382;43.852;25.952;2023-02-28T04:53:08;102353.44;;;6.45;68.90
71559;BME280;59382;43.852;25.952;2023-02-28T04:55:35;102337.25;;;6.37;68.81
71559;BME280;59382;43.852;25.952;2023-02-28T04:58:01;102358.50;;;6.48;69.17
71559;BME280;59382;43.852;25.952;2023-02-28T05:00:26;102348.94;;;6.45;69.09
71559;BME280;59382;43.852;25.952;2023-02-28T05:02:52;102356.13;;;6.45;69.15
71559;BME280;59382;43.852;25.952;2023-02-28T05:05:17;102360.66;;;6.35;68.68
71559;BME280;59382;43.852;25.952;2023-02-28T05:07:44;102362.25;;;6.28;69.13
71559;BME280;59382;43.852;25.952;2023-02-28T05:10:10;102365.06;;;6.26;69.05
71559;BME280;59382;43.852;25.952;2023-02-28T05:12:36;102365.50;;;6.22;69.53
71559;BME280;59382;43.852;25.952;2023-02-28T05:15:03;102378.59;;;6.25;69.13
71559;BME280;59382;43.852;25.952;2023-02-28T05:17:30;102386.63;;;6.34;69.30
71559;BME280;59382;43.852;25.952;2023-02-28T05:19:56;102391.84;;;6.36;69.01
71559;BME280;59382;43.852;25.952;2023-02-28T05:22:21;102380.97;;;6.37;69.04
71559;BME280;59382;43.852;25.952;2023-02-28T05:24:47;102380.69;;;6.40;69.27
71559;BME280;59382;43.852;25.952;2023-02-28T05:27:12;102376.31;;;6.39;69.41
71559;BME280;59382;43.852;25.952;2023-02-28T05:29:38;102373.78;;;6.38;68.79
71559;BME280;59382;43.852;25.952;2023-02-28T05:32:09;102367.03;;;6.34;69.14
71559;BME280;59382;43.852;25.952;2023-02-28T05:34:36;102369.28;;;6.29;69.15
71559;BME280;59382;43.852;25.952;2023-02-28T05:37:02;102374.06;;;6.25;69.04
71559;BME280;59382;43.852;25.952;2023-02-28T05:39:28;102400.59;;;6.38;69.03
71559;BME280;59382;43.852;25.952;2023-02-28T05:41:53;102394.38;;;6.37;69.53
71559;BME280;59382;43.852;25.952;2023-02-28T05:44:19;102409.06;;;6.43;69.44
71559;BME280;59382;43.852;25.952;2023-02-28T05:46:44;102410.75;;;6.44;69.34
71559;BME280;59382;43.852;25.952;2023-02-28T05:49:11;102402.56;;;6.36;69.58
71559;BME280;59382;43.852;25.952;2023-02-28T05:51:36;102429.94;;;6.49;69.46
71559;BME280;59382;43.852;25.952;2023-02-28T05:54:05;102433.03;;;6.54;68.85
71559;BME280;59382;43.852;25.952;2023-02-28T05:56:31;102410.50;;;6.28;68.79
71559;BME280;59382;43.852;25.952;2023-02-28T05:58:57;102435.59;;;6.46;69.10
71559;BME280;59382;43.852;25.952;2023-02-28T06:01:37;102448.84;;;6.47;69.08
71559;BME280;59382;43.852;25.952;2023-02-28T06:04:05;102449.69;;;6.48;68.49
71559;BME280;59382;43.852;25.952;2023-02-28T06:06:31;102451.13;;;6.42;68.88
71559;BME280;59382;43.852;25.952;2023-02-28T06:08:57;102407.94;;;6.17;68.46
71559;BME280;59382;43.852;25.952;2023-02-28T06:11:22;102432.34;;;6.33;68.98
71559;BME280;59382;43.852;25.952;2023-02-28T06:14:01;102452.38;;;6.48;68.89
71559;BME280;59382;43.852;25.952;2023-02-28T06:16:28;102469.88;;;6.52;68.62
71559;BME280;59382;43.852;25.952;2023-02-28T06:18:54;102453.38;;;6.47;68.70
71559;BME280;59382;43.852;25.952;2023-02-28T06:21:22;102439.97;;;6.47;68.50
71559;BME280;59382;43.852;25.952;2023-02-28T06:23:48;102424.28;;;6.33;68.38
71559;BME280;59382;43.852;25.952;2023-02-28T06:26:14;102433.34;;;6.32;68.61
71559;BME280;59382;43.852;25.952;2023-02-28T06:28:39;102415.84;;;6.28;68.59
71559;BME280;59382;43.852;25.952;2023-02-28T06:31:07;102428.84;;;6.32;68.66
71559;BME280;59382;43.852;25.952;2023-02-28T06:33:33;102430.09;;;6.38;68.92
71559;BME280;59382;43.852;25.952;2023-02-28T06:35:59;102400.34;;;6.22;68.85
71559;BME280;59382;43.852;25.952;2023-02-28T06:38:25;102429.38;;;6.36;68.12
71559;BME280;59382;43.852;25.952;2023-02-28T06:40:55;102444.59;;;6.45;68.14
71559;BME280;59382;43.852;25.952;2023-02-28T06:43:22;102412.16;;;6.29;68.77
71559;BME280;59382;43.852;25.952;2023-02-28T06:45:47;102416.25;;;6.33;68.31
71559;BME280;59382;43.852;25.952;2023-02-28T06:48:13;102425.16;;;6.43;67.98
71559;BME280;59382;43.852;25.952;2023-02-28T06:50:38;102440.66;;;6.49;68.65
71559;BME280;59382;43.852;25.952;2023-02-28T06:53:05;102418.38;;;6.39;68.43
71559;BME280;59382;43.852;25.952;2023-02-28T06:55:30;102447.72;;;6.50;68.04
71559;BME280;59382;43.852;25.952;2023-02-28T06:57:57;102436.28;;;6.48;68.64
71559;BME280;59382;43.852;25.952;2023-02-28T07:00:23;102440.66;;;6.49;68.49
71559;BME280;59382;43.852;25.952;2023-02-28T07:02:48;102434.44;;;6.48;68.39
71559;BME280;59382;43.852;25.952;2023-02-28T07:05:14;102430.78;;;6.49;68.12
71559;BME280;59382;43.852;25.952;2023-02-28T07:07:39;102431.91;;;6.47;68.35
71559;BME280;59382;43.852;25.952;2023-02-28T07:10:10;102438.38;;;6.54;68.16
71559;BME280;59382;43.852;25.952;2023-02-28T07:12:37;102427.94;;;6.51;68.23
71559;BME280;59382;43.852;25.952;2023-02-28T07:15:04;102430.63;;;6.60;68.04
71559;BME280;59382;43.852;25.952;2023-02-28T07:17:29;102423.97;;;6.55;68.13
71559;BME280;59382;43.852;25.952;2023-02-28T07:19:55;102415.69;;;6.48;68.19
71559;BME280;59382;43.852;25.952;2023-02-28T07:22:21;102419.50;;;6.46;67.87
71559;BME280;59382;43.852;25.952;2023-02-28T07:24:46;102431.59;;;6.59;68.09
71559;BME280;59382;43.852;25.952;2023-02-28T07:27:15;102429.34;;;6.55;67.96
71559;BME280;59382;43.852;25.952;2023-02-28T07:29:49;102434.41;;;6.58;68.25
71559;BME280;59382;43.852;25.952;2023-02-28T07:32:15;102444.84;;;6.61;68.13
71559;BME280;59382;43.852;25.952;2023-02-28T07:34:41;102444.84;;;6.61;67.86
71559;BME280;59382;43.852;25.952;2023-02-28T07:37:07;102431.47;;;6.51;67.54
71559;BME280;59382;43.852;25.952;2023-02-28T07:39:32;102428.25;;;6.38;67.78
71559;BME280;59382;43.852;25.952;2023-02-28T07:41:58;102449.81;;;6.56;67.98
71559;BME280;59382;43.852;25.952;2023-02-28T07:44:26;102441.78;;;6.56;68.13
71559;BME280;59382;43.852;25.952;2023-02-28T07:46:52;102437.84;;;6.50;67.93
71559;BME280;59382;43.852;25.952;2023-02-28T07:49:18;102435.59;;;6.46;68.16
71559;BME280;59382;43.852;25.952;2023-02-28T07:51:45;102429.38;;;6.45;67.99
71559;BME280;59382;43.852;25.952;2023-02-28T07:54:10;102445.44;;;6.55;68.19
71559;BME280;59382;43.852;25.952;2023-02-28T07:56:36;102428.94;;;6.50;68.44
71559;BME280;59382;43.852;25.952;2023-02-28T07:59:04;102462.09;;;6.58;67.95
71559;BME280;59382;43.852;25.952;2023-02-28T08:01:30;102453.91;;;6.60;67.72
71559;BME280;59382;43.852;25.952;2023-02-28T08:03:55;102445.44;;;6.55;68.30
71559;BME280;59382;43.852;25.952;2023-02-28T08:06:23;102465.75;;;6.67;67.75
71559;BME280;59382;43.852;25.952;2023-02-28T08:08:49;102455.31;;;6.64;67.83
71559;BME280;59382;43.852;25.952;2023-02-28T08:11:15;102460.53;;;6.65;67.91
71559;BME280;59382;43.852;25.952;2023-02-28T08:13:42;102472.53;;;6.71;67.94
71559;BME280;59382;43.852;25.952;2023-02-28T08:16:09;102444.03;;;6.60;67.90
71559;BME280;59382;43.852;25.952;2023-02-28T08:18:35;102466.03;;;6.64;67.95
71559;BME280;59382;43.852;25.952;2023-02-28T08:21:07;102456.31;;;6.63;67.90
71559;BME280;59382;43.852;25.952;2023-02-28T08:23:33;102466.59;;;6.67;68.16
71559;BME280;59382;43.852;25.952;2023-02-28T08:25:59;102453.91;;;6.60;68.01
71559;BME280;59382;43.852;25.952;2023-02-28T08:28:25;102474.78;;;6.75;68.07
71559;BME280;59382;43.852;25.952;2023-02-28T08:30:52;102454.72;;;6.70;68.00
71559;BME280;59382;43.852;25.952;2023-02-28T08:33:17;102451.38;;;6.68;68.08
71559;BME280;59382;43.852;25.952;2023-02-28T08:35:43;102462.06;;;6.77;67.58
71559;BME280;59382;43.852;25.952;2023-02-28T08:38:08;102465.59;;;6.78;67.98
71559;BME280;59382;43.852;25.952;2023-02-28T08:40:34;102467.69;;;6.84;67.69
71559;BME280;59382;43.852;25.952;2023-02-28T08:42:59;102474.47;;;6.88;67.62
71559;BME280;59382;43.852;25.952;2023-02-28T08:45:25;102467.84;;;6.82;67.16
71559;BME280;59382;43.852;25.952;2023-02-28T08:47:51;102465.00;;;6.84;67.35
71559;BME280;59382;43.852;25.952;2023-02-28T08:50:17;102464.00;;;6.85;67.54
71559;BME280;59382;43.852;25.952;2023-02-28T08:52:44;102417.88;;;6.62;67.16
71559;BME280;59382;43.852;25.952;2023-02-28T08:55:10;102447.38;;;6.81;67.33
71559;BME280;59382;43.852;25.952;2023-02-28T08:57:35;102447.81;;;6.77;67.66
71559;BME280;59382;43.852;25.952;2023-02-28T09:00:02;102457.25;;;6.81;67.32
71559;BME280;59382;43.852;25.952;2023-02-28T09:02:30;102459.34;;;6.87;67.52
71559;BME280;59382;43.852;25.952;2023-02-28T09:04:59;102436.06;;;6.78;67.34
71559;BME280;59382;43.852;25.952;2023-02-28T09:07:25;102436.38;;;6.75;67.46
71559;BME280;59382;43.852;25.952;2023-02-28T09:09:51;102454.41;;;6.92;67.60
71559;BME280;59382;43.852;25.952;2023-02-28T09:12:23;102453.84;;;6.98;67.40
71559;BME280;59382;43.852;25.952;2023-02-28T09:14:49;102448.56;;;7.06;67.21
71559;BME280;59382;43.852;25.952;2023-02-28T09:17:15;102435.56;;;7.01;67.50
71559;BME280;59382;43.852;25.952;2023-02-28T09:19:41;102436.28;;;7.03;67.17
71559;BME280;59382;43.852;25.952;2023-02-28T09:22:08;102452.03;;;7.16;67.23
71559;BME280;59382;43.852;25.952;2023-02-28T09:24:35;102449.50;;;7.14;67.07
71559;BME280;59382;43.852;25.952;2023-02-28T09:27:01;102460.50;;;7.21;67.09
71559;BME280;59382;43.852;25.952;2023-02-28T09:29:26;102448.78;;;7.22;66.95
71559;BME280;59382;43.852;25.952;2023-02-28T09:31:52;102439.63;;;7.15;67.09
71559;BME280;59382;43.852;25.952;2023-02-28T09:34:17;102446.09;;;7.22;66.59
71559;BME280;59382;43.852;25.952;2023-02-28T09:36:43;102438.25;;;7.11;66.66
71559;BME280;59382;43.852;25.952;2023-02-28T09:39:09;102447.69;;;7.05;66.87
71559;BME280;59382;43.852;25.952;2023-02-28T09:41:41;102459.41;;;7.14;67.12
71559;BME280;59382;43.852;25.952;2023-02-28T09:44:41;102464.78;;;7.14;66.92
71559;BME280;59382;43.852;25.952;2023-02-28T09:47:18;102464.66;;;7.06;67.07
71559;BME280;59382;43.852;25.952;2023-02-28T09:49:47;102451.25;;;7.06;67.07
71559;BME280;59382;43.852;25.952;2023-02-28T09:52:18;102453.78;;;7.07;67.17
71559;BME280;59382;43.852;25.952;2023-02-28T09:54:44;102453.03;;;7.15;67.24
71559;BME280;59382;43.852;25.952;2023-02-28T09:57:21;102453.47;;;7.20;66.99
71559;BME280;59382;43.852;25.952;2023-02-28T10:05:11;102445.50;;;7.28;66.70
71559;BME280;59382;43.852;25.952;2023-02-28T10:10:44;102410.81;;;7.17;67.21
71559;BME280;59382;43.852;25.952;2023-02-28T10:16:21;102439.22;;;7.37;66.66
71559;BME280;59382;43.852;25.952;2023-02-28T10:18:54;102448.00;;;7.39;66.61
71559;BME280;59382;43.852;25.952;2023-02-28T10:21:47;102448.00;;;7.39;67.11
71559;BME280;59382;43.852;25.952;2023-02-28T10:24:20;102449.38;;;7.43;66.85
71559;BME280;59382;43.852;25.952;2023-02-28T10:26:48;102448.72;;;7.41;66.47
71559;BME280;59382;43.852;25.952;2023-02-28T10:29:14;102434.31;;;7.32;67.03
71559;BME280;59382;43.852;25.952;2023-02-28T10:31:40;102444.59;;;7.37;67.01
71559;BME280;59382;43.852;25.952;2023-02-28T10:34:07;102418.13;;;7.24;67.04
71559;BME280;59382;43.852;25.952;2023-02-28T10:36:36;102435.31;;;7.31;67.28
71559;BME280;59382;43.852;25.952;2023-02-28T10:41:59;102441.53;;;7.32;67.04
71559;BME280;59382;43.852;25.952;2023-02-28T10:44:25;102441.25;;;7.35;67.28
71559;BME280;59382;43.852;25.952;2023-02-28T10:46:51;102415.56;;;7.23;67.54
71559;BME280;59382;43.852;25.952;2023-02-28T10:49:20;102413.56;;;7.25;67.43
71559;BME280;59382;43.852;25.952;2023-02-28T10:51:50;102401.75;;;7.18;67.32
71559;BME280;59382;43.852;25.952;2023-02-28T10:54:43;102429.19;;;7.39;67.11
71559;BME280;59382;43.852;25.952;2023-02-28T10:57:21;102425.81;;;7.37;67.17
71559;BME280;59382;43.852;25.952;2023-02-28T11:00:05;102385.63;;;7.18;67.12
71559;BME280;59382;43.852;25.952;2023-02-28T11:02:36;102406.34;;;7.35;67.33
71559;BME280;59382;43.852;25.952;2023-02-28T11:07:53;102414.09;;;7.38;67.26
71559;BME280;59382;43.852;25.952;2023-02-28T11:10:20;102404.25;;;7.29;67.52
71559;BME280;59382;43.852;25.952;2023-02-28T11:12:47;102413.53;;;7.34;67.49
71559;BME280;59382;43.852;25.952;2023-02-28T11:15:35;102407.59;;;7.31;67.60
71559;BME280;59382;43.852;25.952;2023-02-28T11:20:41;102410.09;;;7.42;67.53
71559;BME280;59382;43.852;25.952;2023-02-28T11:23:12;102409.03;;;7.35;67.82
71559;BME280;59382;43.852;25.952;2023-02-28T11:25:39;102396.25;;;7.37;68.05
71559;BME280;59382;43.852;25.952;2023-02-28T11:28:29;102394.69;;;7.44;67.82
71559;BME280;59382;43.852;25.952;2023-02-28T11:31:17;102386.50;;;7.45;67.90
71559;BME280;59382;43.852;25.952;2023-02-28T11:36:31;102375.88;;;7.44;67.46
71559;BME280;59382;43.852;25.952;2023-02-28T11:39:04;102359.28;;;7.31;67.68
71559;BME280;59382;43.852;25.952;2023-02-28T11:52:53;102360.69;;;7.35;68.08
71559;BME280;59382;43.852;25.952;2023-02-28T11:55:42;102360.97;;;7.32;68.11
71559;BME280;59382;43.852;25.952;2023-02-28T12:01:38;102369.19;;;7.30;68.29
71559;BME280;59382;43.852;25.952;2023-02-28T12:06:50;102352.72;;;7.16;68.69
71559;BME280;59382;43.852;25.952;2023-02-28T12:09:43;102365.53;;;7.22;68.84
71559;BME280;59382;43.852;25.952;2023-02-28T12:28:09;102368.53;;;7.19;68.60
71559;BME280;59382;43.852;25.952;2023-02-28T12:30:41;102352.03;;;7.14;69.21
71559;BME280;59382;43.852;25.952;2023-02-28T12:33:13;102360.47;;;7.19;69.02
71559;BME280;59382;43.852;25.952;2023-02-28T12:36:10;102359.03;;;7.24;68.87
71559;BME280;59382;43.852;25.952;2023-02-28T12:38:56;102373.69;;;7.30;68.96
71559;BME280;59382;43.852;25.952;2023-02-28T12:44:01;102359.94;;;7.15;69.14
71559;BME280;59382;43.852;25.952;2023-02-28T12:46:41;102372.31;;;7.26;68.86
71559;BME280;59382;43.852;25.952;2023-02-28T12:49:13;102373.28;;;7.25;69.23
71559;BME280;59382;43.852;25.952;2023-02-28T12:51:43;102354.81;;;7.22;69.12
71559;BME280;59382;43.852;25.952;2023-02-28T12:54:26;102346.38;;;7.17;69.51
71559;BME280;59382;43.852;25.952;2023-02-28T12:57:12;102370.31;;;7.28;69.52
71559;BME280;59382;43.852;25.952;2023-02-28T12:59:51;102360.44;;;7.28;69.29
71559;BME280;59382;43.852;25.952;2023-02-28T13:10:17;102348.53;;;7.31;69.16
71559;BME280;59382;43.852;25.952;2023-02-28T13:12:51;102351.03;;;7.42;68.91
71559;BME280;59382;43.852;25.952;2023-02-28T13:15:20;102362.31;;;7.45;68.92
71559;BME280;59382;43.852;25.952;2023-02-28T13:17:52;102339.13;;;7.44;68.82
71559;BME280;59382;43.852;25.952;2023-02-28T13:20:26;102338.66;;;7.49;68.82
71559;BME280;59382;43.852;25.952;2023-02-28T13:22:55;102339.50;;;7.49;68.65
71559;BME280;59382;43.852;25.952;2023-02-28T13:27:48;102323.84;;;7.45;68.51
71559;BME280;59382;43.852;25.952;2023-02-28T13:38:52;102342.72;;;7.53;68.72
71559;BME280;59382;43.852;25.952;2023-02-28T13:44:20;102322.69;;;7.47;68.08
71559;BME280;59382;43.852;25.952;2023-02-28T13:54:50;102326.31;;;7.56;68.36
71559;BME280;59382;43.852;25.952;2023-02-28T13:57:44;102330.84;;;7.55;68.14
71559;BME280;59382;43.852;25.952;2023-02-28T14:00:18;102327.91;;;7.49;68.12
71559;BME280;59382;43.852;25.952;2023-02-28T14:05:21;102325.94;;;7.51;67.85
71559;BME280;59382;43.852;25.952;2023-02-28T14:08:16;102335.06;;;7.58;68.02
71559;BME280;59382;43.852;25.952;2023-02-28T14:10:49;102324.94;;;7.52;67.92
71559;BME280;59382;43.852;25.952;2023-02-28T14:13:38;102350.72;;;7.62;67.96
71559;BME280;59382;43.852;25.952;2023-02-28T14:16:10;102331.91;;;7.62;68.09
71559;BME280;59382;43.852;25.952;2023-02-28T14:18:41;102339.81;;;7.64;67.78
71559;BME280;59382;43.852;25.952;2023-02-28T14:29:51;102332.78;;;7.63;67.93
71559;BME280;59382;43.852;25.952;2023-02-28T14:35:36;102306.53;;;7.57;67.74
71559;BME280;59382;43.852;25.952;2023-02-28T14:38:06;102312.97;;;7.64;67.35
71559;BME280;59382;43.852;25.952;2023-02-28T14:40:39;102325.63;;;7.71;67.67
71559;BME280;59382;43.852;25.952;2023-02-28T14:43:19;102315.19;;;7.68;67.43
71559;BME280;59382;43.852;25.952;2023-02-28T14:45:49;102336.97;;;7.83;67.45
71559;BME280;59382;43.852;25.952;2023-02-28T14:48:17;102318.47;;;7.80;67.21
71559;BME280;59382;43.852;25.952;2023-02-28T14:50:49;102312.88;;;7.73;67.07
71559;BME280;59382;43.852;25.952;2023-02-28T14:53:18;102322.16;;;7.79;67.10
71559;BME280;59382;43.852;25.952;2023-02-28T14:55:46;102328.59;;;7.86;67.00
71559;BME280;59382;43.852;25.952;2023-02-28T14:58:26;102338.84;;;7.82;67.18
71559;BME280;59382;43.852;25.952;2023-02-28T15:00:54;102307.28;;;7.67;67.57
71559;BME280;59382;43.852;25.952;2023-02-28T15:03:27;102336.97;;;7.83;67.16
71559;BME280;59382;43.852;25.952;2023-02-28T15:05:57;102323.63;;;7.73;67.40
71559;BME280;59382;43.852;25.952;2023-02-28T15:08:24;102334.28;;;7.83;67.32
71559;BME280;59382;43.852;25.952;2023-02-28T15:11:01;102321.09;;;7.72;67.17
71559;BME280;59382;43.852;25.952;2023-02-28T15:13:43;102276.97;;;7.39;67.38
71559;BME280;59382;43.852;25.952;2023-02-28T15:18:59;102326.47;;;7.72;67.39
71559;BME280;59382;43.852;25.952;2023-02-28T15:21:29;102340.53;;;7.83;67.18
71559;BME280;59382;43.852;25.952;2023-02-28T15:24:50;102341.88;;;7.87;66.95
71559;BME280;59382;43.852;25.952;2023-02-28T15:27:17;102351.13;;;7.85;67.07
71559;BME280;59382;43.852;25.952;2023-02-28T15:29:48;102356.88;;;7.90;67.16